PWSweather.com
Personal Weather Stations
Station Observations
KOHCLEVE171
Cleveland, OH

Cleveland, OH

Lat: 41.48646164, Lon: -81.46408081

Elevation: 1059

Station Type:

High Low Average
Temperature 35.8°F2.1°C 2.8°F-16.2°C 18.8°F-7.3°C
Dew Point 24.8°F-4.0°C -3.6°F-19.8°C 9.9°F-12.3°C
Winds 11.4 mph 18.3 kmh 0.4 mph 0.6 kmh 5.0 mph S8.0 kmh S
Wind Gusts 20.6 mph33.2 kmh 0.4 mph0.6 kmh 8.0 mph12.9 kmh
Humidity 80% 58% 69%
Pressure 30.69 in1039.3 mb 30.12 in1020.0 mb -
Precipitation 0.00 in0.0 mm - -
Hour Temp Dew Point Humidity Winds Wind Gusts Pressure Precip Precip Rate Daily Precip Total
12:04 AM 10.6°F-11.9°C 5.4°F-14.8°C 79% 2.2 mph SE3.5 kmh SE 3.4 mph5.5 kmh 30.66 in1038.3 mb 0.00 in0.0 mm 0.00 in0.0 mm 0.00 in0.0 mm
12:09 AM 10.2°F-12.1°C 5.0°F-15.0°C 79% 2.2 mph SE3.5 kmh SE 2.9 mph4.7 kmh 30.67 in1038.6 mb 0.00 in0.0 mm 0.00 in0.0 mm 0.00 in0.0 mm
12:14 AM 10.0°F-12.2°C 4.8°F-15.1°C 79% 2.0 mph SE3.2 kmh SE 2.7 mph4.3 kmh 30.67 in1038.6 mb 0.00 in0.0 mm 0.00 in0.0 mm 0.00 in0.0 mm
12:19 AM 10.0°F-12.2°C 5.2°F-14.9°C 80% 2.9 mph ESE4.7 kmh ESE 3.4 mph5.5 kmh 30.67 in1038.6 mb 0.00 in0.0 mm 0.00 in0.0 mm 0.00 in0.0 mm
12:24 AM 10.6°F-11.9°C 5.7°F-14.6°C 80% 3.1 mph E5.0 kmh E 3.8 mph6.1 kmh 30.67 in1038.6 mb 0.00 in0.0 mm 0.00 in0.0 mm 0.00 in0.0 mm
12:29 AM 10.2°F-12.1°C 5.0°F-15.0°C 79% 2.0 mph SE3.2 kmh SE 2.5 mph4.0 kmh 30.67 in1038.6 mb 0.00 in0.0 mm 0.00 in0.0 mm 0.00 in0.0 mm
12:34 AM 10.2°F-12.1°C 5.4°F-14.8°C 80% 3.1 mph SE5.0 kmh SE 3.4 mph5.5 kmh 30.67 in1038.6 mb 0.00 in0.0 mm 0.00 in0.0 mm 0.00 in0.0 mm
12:39 AM 10.8°F-11.8°C 5.7°F-14.6°C 80% 2.0 mph SE3.2 kmh SE 2.7 mph4.3 kmh 30.67 in1038.6 mb 0.00 in0.0 mm 0.00 in0.0 mm 0.00 in0.0 mm
12:44 AM 10.4°F-12.0°C 5.2°F-14.9°C 79% 3.1 mph SE5.0 kmh SE 3.1 mph5.0 kmh 30.68 in1038.9 mb 0.00 in0.0 mm 0.00 in0.0 mm 0.00 in0.0 mm
12:49 AM 9.5°F-12.5°C 4.3°F-15.4°C 79% 2.0 mph SE3.2 kmh SE 3.8 mph6.1 kmh 30.67 in1038.6 mb 0.00 in0.0 mm 0.00 in0.0 mm 0.00 in0.0 mm
12:54 AM 9.3°F-12.6°C 4.1°F-15.5°C 79% 3.1 mph SE5.0 kmh SE 3.4 mph5.5 kmh 30.68 in1038.9 mb 0.00 in0.0 mm 0.00 in0.0 mm 0.00 in0.0 mm
01:04 AM 9.5°F-12.5°C 4.3°F-15.4°C 79% 3.6 mph SE5.8 kmh SE 3.6 mph5.8 kmh 30.68 in1038.9 mb 0.00 in0.0 mm 0.00 in0.0 mm 0.00 in0.0 mm
01:09 AM 9.0°F-12.8°C 3.6°F-15.8°C 78% 3.1 mph ESE5.0 kmh ESE 3.4 mph5.5 kmh 30.68 in1038.9 mb 0.00 in0.0 mm 0.00 in0.0 mm 0.00 in0.0 mm
01:14 AM 9.1°F-12.7°C 3.9°F-15.6°C 79% 3.6 mph ESE5.8 kmh ESE 3.8 mph6.1 kmh 30.68 in1038.9 mb 0.00 in0.0 mm 0.00 in0.0 mm 0.00 in0.0 mm
01:19 AM 9.1°F-12.7°C 3.9°F-15.6°C 79% 2.9 mph NNE4.7 kmh NNE 4.5 mph7.2 kmh 30.67 in1038.6 mb 0.00 in0.0 mm 0.00 in0.0 mm 0.00 in0.0 mm
01:24 AM 9.1°F-12.7°C 3.9°F-15.6°C 79% 2.7 mph SE4.3 kmh SE 3.6 mph5.8 kmh 30.67 in1038.6 mb 0.00 in0.0 mm 0.00 in0.0 mm 0.00 in0.0 mm
01:29 AM 9.1°F-12.7°C 3.9°F-15.6°C 79% 0.4 mph NW0.6 kmh NW 0.4 mph0.6 kmh 30.67 in1038.6 mb 0.00 in0.0 mm 0.00 in0.0 mm 0.00 in0.0 mm
01:34 AM 9.0°F-12.8°C 3.7°F-15.7°C 79% 0.7 mph NW1.1 kmh NW 2.2 mph3.5 kmh 30.67 in1038.6 mb 0.00 in0.0 mm 0.00 in0.0 mm 0.00 in0.0 mm
01:39 AM 9.0°F-12.8°C 3.6°F-15.8°C 78% 1.3 mph WSW2.1 kmh WSW 2.7 mph4.3 kmh 30.67 in1038.6 mb 0.00 in0.0 mm 0.00 in0.0 mm 0.00 in0.0 mm
01:44 AM 8.6°F-13.0°C 3.2°F-16.0°C 78% 0.7 mph SW1.1 kmh SW 1.1 mph1.8 kmh 30.66 in1038.3 mb 0.00 in0.0 mm 0.00 in0.0 mm 0.00 in0.0 mm
01:49 AM 8.6°F-13.0°C 3.2°F-16.0°C 78% 2.7 mph SSW4.3 kmh SSW 3.8 mph6.1 kmh 30.67 in1038.6 mb 0.00 in0.0 mm 0.00 in0.0 mm 0.00 in0.0 mm
01:54 AM 8.2°F-13.2°C 2.8°F-16.2°C 78% 0.9 mph NW1.4 kmh NW 2.9 mph4.7 kmh 30.66 in1038.3 mb 0.00 in0.0 mm 0.00 in0.0 mm 0.00 in0.0 mm
01:59 AM 8.1°F-13.3°C 2.7°F-16.3°C 78% 0.4 mph NW0.6 kmh NW 0.7 mph1.1 kmh 30.67 in1038.6 mb 0.00 in0.0 mm 0.00 in0.0 mm 0.00 in0.0 mm
02:04 AM 7.9°F-13.4°C 2.5°F-16.4°C 78% 1.3 mph WSW2.1 kmh WSW 2.9 mph4.7 kmh 30.66 in1038.3 mb 0.00 in0.0 mm 0.00 in0.0 mm 0.00 in0.0 mm
02:09 AM 7.7°F-13.5°C 2.3°F-16.5°C 78% 0.4 mph SW0.6 kmh SW 0.7 mph1.1 kmh 30.66 in1038.3 mb 0.00 in0.0 mm 0.00 in0.0 mm 0.00 in0.0 mm
02:14 AM 7.7°F-13.5°C 2.3°F-16.5°C 78% 0.9 mph SW1.4 kmh SW 1.1 mph1.8 kmh 30.67 in1038.6 mb 0.00 in0.0 mm 0.00 in0.0 mm 0.00 in0.0 mm
02:19 AM 6.8°F-14.0°C 0.9°F-17.3°C 76% 0.9 mph SW1.4 kmh SW 2.0 mph3.2 kmh 30.67 in1038.6 mb 0.00 in0.0 mm 0.00 in0.0 mm 0.00 in0.0 mm
02:24 AM 6.8°F-14.0°C 0.9°F-17.3°C 76% 0.7 mph SW1.1 kmh SW 0.9 mph1.4 kmh 30.67 in1038.6 mb 0.00 in0.0 mm 0.00 in0.0 mm 0.00 in0.0 mm
02:29 AM 7.0°F-13.9°C 1.0°F-17.2°C 76% 0.7 mph SW1.1 kmh SW 2.5 mph4.0 kmh 30.67 in1038.6 mb 0.00 in0.0 mm 0.00 in0.0 mm 0.00 in0.0 mm
02:34 AM 7.0°F-13.9°C 1.0°F-17.2°C 76% 3.1 mph ENE5.0 kmh ENE 7.6 mph12.2 kmh 30.67 in1038.6 mb 0.00 in0.0 mm 0.00 in0.0 mm 0.00 in0.0 mm
02:39 AM 7.0°F-13.9°C 1.6°F-16.9°C 78% 1.3 mph WSW2.1 kmh WSW 4.5 mph7.2 kmh 30.67 in1038.6 mb 0.00 in0.0 mm 0.00 in0.0 mm 0.00 in0.0 mm
02:44 AM 7.0°F-13.9°C 1.0°F-17.2°C 76% 0.7 mph SW1.1 kmh SW 1.1 mph1.8 kmh 30.67 in1038.6 mb 0.00 in0.0 mm 0.00 in0.0 mm 0.00 in0.0 mm
02:49 AM 6.6°F-14.1°C 0.7°F-17.4°C 76% 0.7 mph SW1.1 kmh SW 0.9 mph1.4 kmh 30.68 in1038.9 mb 0.00 in0.0 mm 0.00 in0.0 mm 0.00 in0.0 mm
02:54 AM 6.4°F-14.2°C 0.5°F-17.5°C 76% 0.7 mph SW1.1 kmh SW 1.3 mph2.1 kmh 30.68 in1038.9 mb 0.00 in0.0 mm 0.00 in0.0 mm 0.00 in0.0 mm
02:59 AM 6.6°F-14.1°C 0.7°F-17.4°C 76% 0.9 mph SW1.4 kmh SW 0.9 mph1.4 kmh 30.68 in1038.9 mb 0.00 in0.0 mm 0.00 in0.0 mm 0.00 in0.0 mm
03:04 AM 6.3°F-14.3°C 0.0°F-17.8°C 75% 0.9 mph SW1.4 kmh SW 2.7 mph4.3 kmh 30.68 in1038.9 mb 0.00 in0.0 mm 0.00 in0.0 mm 0.00 in0.0 mm
03:09 AM 6.1°F-14.4°C -0.2°F-17.9°C 75% 0.7 mph SW1.1 kmh SW 0.7 mph1.1 kmh 30.69 in1039.3 mb 0.00 in0.0 mm 0.00 in0.0 mm 0.00 in0.0 mm
03:14 AM 5.9°F-14.5°C -0.4°F-18.0°C 75% 0.7 mph SW1.1 kmh SW 0.7 mph1.1 kmh 30.69 in1039.3 mb 0.00 in0.0 mm 0.00 in0.0 mm 0.00 in0.0 mm
03:19 AM 5.2°F-14.9°C -0.9°F-18.3°C 75% 0.7 mph SW1.1 kmh SW 0.7 mph1.1 kmh 30.69 in1039.3 mb 0.00 in0.0 mm 0.00 in0.0 mm 0.00 in0.0 mm
03:24 AM 5.2°F-14.9°C -0.8°F-18.2°C 76% 0.4 mph SW0.6 kmh SW 0.7 mph1.1 kmh 30.68 in1038.9 mb 0.00 in0.0 mm 0.00 in0.0 mm 0.00 in0.0 mm
03:29 AM 4.6°F-15.2°C -1.5°F-18.6°C 75% 0.4 mph SW0.6 kmh SW 0.7 mph1.1 kmh 30.68 in1038.9 mb 0.00 in0.0 mm 0.00 in0.0 mm 0.00 in0.0 mm
03:34 AM 4.6°F-15.2°C -1.3°F-18.5°C 76% 0.4 mph SW0.6 kmh SW 0.7 mph1.1 kmh 30.68 in1038.9 mb 0.00 in0.0 mm 0.00 in0.0 mm 0.00 in0.0 mm
03:39 AM 4.6°F-15.2°C -1.3°F-18.5°C 76% 0.4 mph SW0.6 kmh SW 0.7 mph1.1 kmh 30.68 in1038.9 mb 0.00 in0.0 mm 0.00 in0.0 mm 0.00 in0.0 mm
03:44 AM 4.6°F-15.2°C -1.3°F-18.5°C 76% 0.4 mph SW0.6 kmh SW 0.7 mph1.1 kmh 30.68 in1038.9 mb 0.00 in0.0 mm 0.00 in0.0 mm 0.00 in0.0 mm
03:49 AM 5.0°F-15.0°C -0.4°F-18.0°C 78% 0.9 mph SW1.4 kmh SW 3.8 mph6.1 kmh 30.68 in1038.9 mb 0.00 in0.0 mm 0.00 in0.0 mm 0.00 in0.0 mm
03:54 AM 5.2°F-14.9°C -0.8°F-18.2°C 76% 0.7 mph SW1.1 kmh SW 0.7 mph1.1 kmh 30.67 in1038.6 mb 0.00 in0.0 mm 0.00 in0.0 mm 0.00 in0.0 mm
03:59 AM 4.3°F-15.4°C -1.8°F-18.8°C 75% 0.7 mph SW1.1 kmh SW 0.9 mph1.4 kmh 30.68 in1038.9 mb 0.00 in0.0 mm 0.00 in0.0 mm 0.00 in0.0 mm
04:04 AM 4.6°F-15.2°C -1.3°F-18.5°C 76% 0.7 mph SW1.1 kmh SW 0.9 mph1.4 kmh 30.68 in1038.9 mb 0.00 in0.0 mm 0.00 in0.0 mm 0.00 in0.0 mm
04:09 AM 4.5°F-15.3°C -1.7°F-18.7°C 75% 1.1 mph NW1.8 kmh NW 8.7 mph14.0 kmh 30.67 in1038.6 mb 0.00 in0.0 mm 0.00 in0.0 mm 0.00 in0.0 mm
04:14 AM 3.9°F-15.6°C -2.2°F-19.0°C 75% 0.9 mph NW1.4 kmh NW 5.6 mph9.0 kmh 30.67 in1038.6 mb 0.00 in0.0 mm 0.00 in0.0 mm 0.00 in0.0 mm
04:19 AM 3.6°F-15.8°C -2.6°F-19.2°C 75% 0.7 mph NW1.1 kmh NW 0.7 mph1.1 kmh 30.66 in1038.3 mb 0.00 in0.0 mm 0.00 in0.0 mm 0.00 in0.0 mm
04:24 AM 4.1°F-15.5°C -1.8°F-18.8°C 76% 0.7 mph NW1.1 kmh NW 0.9 mph1.4 kmh 30.66 in1038.3 mb 0.00 in0.0 mm 0.00 in0.0 mm 0.00 in0.0 mm
04:29 AM 3.6°F-15.8°C -2.6°F-19.2°C 75% 2.9 mph WSW4.7 kmh WSW 11.4 mph18.3 kmh 30.66 in1038.3 mb 0.00 in0.0 mm 0.00 in0.0 mm 0.00 in0.0 mm
04:34 AM 3.4°F-15.9°C -2.7°F-19.3°C 75% 0.9 mph NW1.4 kmh NW 5.6 mph9.0 kmh 30.65 in1037.9 mb 0.00 in0.0 mm 0.00 in0.0 mm 0.00 in0.0 mm
04:39 AM 3.6°F-15.8°C -2.6°F-19.2°C 75% 0.7 mph NW1.1 kmh NW 0.9 mph1.4 kmh 30.65 in1037.9 mb 0.00 in0.0 mm 0.00 in0.0 mm 0.00 in0.0 mm
04:44 AM 4.1°F-15.5°C -1.8°F-18.8°C 76% 0.7 mph NW1.1 kmh NW 0.9 mph1.4 kmh 30.65 in1037.9 mb 0.00 in0.0 mm 0.00 in0.0 mm 0.00 in0.0 mm
04:49 AM 4.1°F-15.5°C -1.8°F-18.8°C 76% 1.1 mph NW1.8 kmh NW 5.4 mph8.7 kmh 30.65 in1037.9 mb 0.00 in0.0 mm 0.00 in0.0 mm 0.00 in0.0 mm
04:54 AM 3.9°F-15.6°C -2.2°F-19.0°C 75% 1.6 mph NW2.6 kmh NW 6.9 mph11.1 kmh 30.64 in1037.6 mb 0.00 in0.0 mm 0.00 in0.0 mm 0.00 in0.0 mm
04:59 AM 4.1°F-15.5°C -1.8°F-18.8°C 76% 0.7 mph NW1.1 kmh NW 0.7 mph1.1 kmh 30.64 in1037.6 mb 0.00 in0.0 mm 0.00 in0.0 mm 0.00 in0.0 mm
05:04 AM 4.1°F-15.5°C -1.8°F-18.8°C 76% 1.6 mph W2.6 kmh W 4.3 mph6.9 kmh 30.64 in1037.6 mb 0.00 in0.0 mm 0.00 in0.0 mm 0.00 in0.0 mm
05:09 AM 3.9°F-15.6°C -2.0°F-18.9°C 76% 0.9 mph SW1.4 kmh SW 0.9 mph1.4 kmh 30.64 in1037.6 mb 0.00 in0.0 mm 0.00 in0.0 mm 0.00 in0.0 mm
05:14 AM 3.6°F-15.8°C -2.6°F-19.2°C 75% 0.7 mph NW1.1 kmh NW 5.4 mph8.7 kmh 30.63 in1037.3 mb 0.00 in0.0 mm 0.00 in0.0 mm 0.00 in0.0 mm
05:19 AM 3.2°F-16.0°C -2.9°F-19.4°C 75% 1.1 mph NW1.8 kmh NW 5.4 mph8.7 kmh 30.63 in1037.3 mb 0.00 in0.0 mm 0.00 in0.0 mm 0.00 in0.0 mm
05:24 AM 2.8°F-16.2°C -3.6°F-19.8°C 74% 5.4 mph E8.7 kmh E 8.3 mph13.4 kmh 30.63 in1037.3 mb 0.00 in0.0 mm 0.00 in0.0 mm 0.00 in0.0 mm
05:29 AM 3.0°F-16.1°C -3.1°F-19.5°C 75% 4.9 mph ENE7.9 kmh ENE 10.3 mph16.6 kmh 30.62 in1036.9 mb 0.00 in0.0 mm 0.00 in0.0 mm 0.00 in0.0 mm
05:34 AM 3.2°F-16.0°C -2.9°F-19.4°C 75% 2.2 mph E3.5 kmh E 5.4 mph8.7 kmh 30.62 in1036.9 mb 0.00 in0.0 mm 0.00 in0.0 mm 0.00 in0.0 mm
05:39 AM 2.8°F-16.2°C -3.3°F-19.6°C 75% 4.3 mph E6.9 kmh E 11.9 mph19.2 kmh 30.61 in1036.6 mb 0.00 in0.0 mm 0.00 in0.0 mm 0.00 in0.0 mm
05:44 AM 3.2°F-16.0°C -2.9°F-19.4°C 75% 2.0 mph E3.2 kmh E 4.7 mph7.6 kmh 30.61 in1036.6 mb 0.00 in0.0 mm 0.00 in0.0 mm 0.00 in0.0 mm
05:49 AM 3.4°F-15.9°C -2.6°F-19.2°C 76% 2.0 mph E3.2 kmh E 4.7 mph7.6 kmh 30.61 in1036.6 mb 0.00 in0.0 mm 0.00 in0.0 mm 0.00 in0.0 mm
05:54 AM 3.7°F-15.7°C -1.7°F-18.7°C 78% 1.8 mph ENE2.9 kmh ENE 6.5 mph10.5 kmh 30.61 in1036.6 mb 0.00 in0.0 mm 0.00 in0.0 mm 0.00 in0.0 mm
05:59 AM 3.7°F-15.7°C -2.2°F-19.0°C 76% 2.5 mph E4.0 kmh E 6.7 mph10.8 kmh 30.62 in1036.9 mb 0.00 in0.0 mm 0.00 in0.0 mm 0.00 in0.0 mm
06:04 AM 3.7°F-15.7°C -2.2°F-19.0°C 76% 2.7 mph ENE4.3 kmh ENE 6.7 mph10.8 kmh 30.63 in1037.3 mb 0.00 in0.0 mm 0.00 in0.0 mm 0.00 in0.0 mm
06:09 AM 3.7°F-15.7°C -2.2°F-19.0°C 76% 2.5 mph ENE4.0 kmh ENE 5.4 mph8.7 kmh 30.63 in1037.3 mb 0.00 in0.0 mm 0.00 in0.0 mm 0.00 in0.0 mm
06:14 AM 4.1°F-15.5°C -1.8°F-18.8°C 76% 2.2 mph E3.5 kmh E 5.8 mph9.3 kmh 30.63 in1037.3 mb 0.00 in0.0 mm 0.00 in0.0 mm 0.00 in0.0 mm
06:19 AM 4.3°F-15.4°C -1.1°F-18.4°C 78% 1.1 mph S1.8 kmh S 4.0 mph6.4 kmh 30.64 in1037.6 mb 0.00 in0.0 mm 0.00 in0.0 mm 0.00 in0.0 mm
06:24 AM 4.1°F-15.5°C -1.3°F-18.5°C 78% 2.5 mph W4.0 kmh W 4.3 mph6.9 kmh 30.65 in1037.9 mb 0.00 in0.0 mm 0.00 in0.0 mm 0.00 in0.0 mm
06:29 AM 4.3°F-15.4°C -1.1°F-18.4°C 78% 0.4 mph NW0.6 kmh NW 2.5 mph4.0 kmh 30.65 in1037.9 mb 0.00 in0.0 mm 0.00 in0.0 mm 0.00 in0.0 mm
06:34 AM 4.6°F-15.2°C -0.4°F-18.0°C 79% 3.6 mph SE5.8 kmh SE 4.5 mph7.2 kmh 30.64 in1037.6 mb 0.00 in0.0 mm 0.00 in0.0 mm 0.00 in0.0 mm
06:39 AM 5.2°F-14.9°C 0.1°F-17.7°C 79% 4.0 mph E6.4 kmh E 5.8 mph9.3 kmh 30.63 in1037.3 mb 0.00 in0.0 mm 0.00 in0.0 mm 0.00 in0.0 mm
06:44 AM 5.4°F-14.8°C 0.3°F-17.6°C 79% 4.0 mph SE6.4 kmh SE 4.9 mph7.9 kmh 30.63 in1037.3 mb 0.00 in0.0 mm 0.00 in0.0 mm 0.00 in0.0 mm
06:49 AM 5.9°F-14.5°C 1.0°F-17.2°C 80% 4.0 mph SE6.4 kmh SE 4.7 mph7.6 kmh 30.63 in1037.3 mb 0.00 in0.0 mm 0.00 in0.0 mm 0.00 in0.0 mm
06:54 AM 6.1°F-14.4°C 1.2°F-17.1°C 80% 2.5 mph SE4.0 kmh SE 4.5 mph7.2 kmh 30.63 in1037.3 mb 0.00 in0.0 mm 0.00 in0.0 mm 0.00 in0.0 mm
06:59 AM 6.1°F-14.4°C 1.2°F-17.1°C 80% 2.0 mph SSE3.2 kmh SSE 3.1 mph5.0 kmh 30.63 in1037.3 mb 0.00 in0.0 mm 0.00 in0.0 mm 0.00 in0.0 mm
07:04 AM 6.3°F-14.3°C 1.4°F-17.0°C 80% 2.2 mph SE3.5 kmh SE 3.8 mph6.1 kmh 30.63 in1037.3 mb 0.00 in0.0 mm 0.00 in0.0 mm 0.00 in0.0 mm
07:14 AM 6.6°F-14.1°C 1.8°F-16.8°C 80% 2.5 mph SE4.0 kmh SE 5.4 mph8.7 kmh 30.62 in1036.9 mb 0.00 in0.0 mm 0.00 in0.0 mm 0.00 in0.0 mm
07:19 AM 6.8°F-14.0°C 1.9°F-16.7°C 80% 3.1 mph SSE5.0 kmh SSE 5.6 mph9.0 kmh 30.62 in1036.9 mb 0.00 in0.0 mm 0.00 in0.0 mm 0.00 in0.0 mm
07:24 AM 6.8°F-14.0°C 1.9°F-16.7°C 80% 2.9 mph SE4.7 kmh SE 4.0 mph6.4 kmh 30.62 in1036.9 mb 0.00 in0.0 mm 0.00 in0.0 mm 0.00 in0.0 mm
07:29 AM 6.8°F-14.0°C 1.9°F-16.7°C 80% 3.6 mph SE5.8 kmh SE 4.7 mph7.6 kmh 30.62 in1036.9 mb 0.00 in0.0 mm 0.00 in0.0 mm 0.00 in0.0 mm
07:34 AM 7.0°F-13.9°C 2.1°F-16.6°C 80% 2.2 mph SSE3.5 kmh SSE 3.1 mph5.0 kmh 30.62 in1036.9 mb 0.00 in0.0 mm 0.00 in0.0 mm 0.00 in0.0 mm
07:39 AM 7.2°F-13.8°C 2.3°F-16.5°C 80% 2.5 mph SSE4.0 kmh SSE 3.1 mph5.0 kmh 30.62 in1036.9 mb 0.00 in0.0 mm 0.00 in0.0 mm 0.00 in0.0 mm
07:44 AM 7.2°F-13.8°C 2.3°F-16.5°C 80% 3.1 mph SSE5.0 kmh SSE 4.9 mph7.9 kmh 30.62 in1036.9 mb 0.00 in0.0 mm 0.00 in0.0 mm 0.00 in0.0 mm
07:49 AM 7.3°F-13.7°C 2.5°F-16.4°C 80% 3.1 mph SE5.0 kmh SE 4.9 mph7.9 kmh 30.62 in1036.9 mb 0.00 in0.0 mm 0.00 in0.0 mm 0.00 in0.0 mm
07:54 AM 7.3°F-13.7°C 2.5°F-16.4°C 80% 2.0 mph SSE3.2 kmh SSE 3.1 mph5.0 kmh 30.61 in1036.6 mb 0.00 in0.0 mm 0.00 in0.0 mm 0.00 in0.0 mm
07:59 AM 7.7°F-13.5°C 2.8°F-16.2°C 80% 2.2 mph SSE3.5 kmh SSE 3.6 mph5.8 kmh 30.62 in1036.9 mb 0.00 in0.0 mm 0.00 in0.0 mm 0.00 in0.0 mm
08:04 AM 8.1°F-13.3°C 3.2°F-16.0°C 80% 2.7 mph SSE4.3 kmh SSE 4.5 mph7.2 kmh 30.61 in1036.6 mb 0.00 in0.0 mm 0.00 in0.0 mm 0.00 in0.0 mm
08:09 AM 8.4°F-13.1°C 3.6°F-15.8°C 80% 3.1 mph S5.0 kmh S 4.5 mph7.2 kmh 30.61 in1036.6 mb 0.00 in0.0 mm 0.00 in0.0 mm 0.00 in0.0 mm
08:14 AM 8.6°F-13.0°C 3.4°F-15.9°C 79% 3.6 mph S5.8 kmh S 4.7 mph7.6 kmh 30.61 in1036.6 mb 0.00 in0.0 mm 0.00 in0.0 mm 0.00 in0.0 mm
08:19 AM 8.8°F-12.9°C 3.6°F-15.8°C 79% 3.1 mph S5.0 kmh S 5.6 mph9.0 kmh 30.61 in1036.6 mb 0.00 in0.0 mm 0.00 in0.0 mm 0.00 in0.0 mm
08:24 AM 8.8°F-12.9°C 3.6°F-15.8°C 79% 3.4 mph SSE5.5 kmh SSE 5.6 mph9.0 kmh 30.61 in1036.6 mb 0.00 in0.0 mm 0.00 in0.0 mm 0.00 in0.0 mm
08:29 AM 9.0°F-12.8°C 3.7°F-15.7°C 79% 2.9 mph SSE4.7 kmh SSE 4.0 mph6.4 kmh 30.61 in1036.6 mb 0.00 in0.0 mm 0.00 in0.0 mm 0.00 in0.0 mm
08:34 AM 9.0°F-12.8°C 3.7°F-15.7°C 79% 2.9 mph SSE4.7 kmh SSE 4.3 mph6.9 kmh 30.60 in1036.2 mb 0.00 in0.0 mm 0.00 in0.0 mm 0.00 in0.0 mm
08:39 AM 9.1°F-12.7°C 3.9°F-15.6°C 79% 3.6 mph SSE5.8 kmh SSE 6.5 mph10.5 kmh 30.60 in1036.2 mb 0.00 in0.0 mm 0.00 in0.0 mm 0.00 in0.0 mm
08:44 AM 9.1°F-12.7°C 3.7°F-15.7°C 78% 2.9 mph SSE4.7 kmh SSE 4.3 mph6.9 kmh 30.59 in1035.9 mb 0.00 in0.0 mm 0.00 in0.0 mm 0.00 in0.0 mm
08:49 AM 9.5°F-12.5°C 4.3°F-15.4°C 79% 3.8 mph SE6.1 kmh SE 5.4 mph8.7 kmh 30.59 in1035.9 mb 0.00 in0.0 mm 0.00 in0.0 mm 0.00 in0.0 mm
08:54 AM 9.7°F-12.4°C 4.5°F-15.3°C 79% 3.6 mph SE5.8 kmh SE 6.7 mph10.8 kmh 30.58 in1035.6 mb 0.00 in0.0 mm 0.00 in0.0 mm 0.00 in0.0 mm
09:04 AM 9.9°F-12.3°C 4.6°F-15.2°C 79% 3.1 mph SSE5.0 kmh SSE 4.9 mph7.9 kmh 30.59 in1035.9 mb 0.00 in0.0 mm 0.00 in0.0 mm 0.00 in0.0 mm
09:14 AM 10.2°F-12.1°C 4.6°F-15.2°C 78% 3.8 mph SSE6.1 kmh SSE 5.4 mph8.7 kmh 30.59 in1035.9 mb 0.00 in0.0 mm 0.00 in0.0 mm 0.00 in0.0 mm
09:19 AM 10.6°F-11.9°C 5.0°F-15.0°C 78% 3.6 mph SSE5.8 kmh SSE 5.4 mph8.7 kmh 30.59 in1035.9 mb 0.00 in0.0 mm 0.00 in0.0 mm 0.00 in0.0 mm
09:24 AM 10.8°F-11.8°C 5.2°F-14.9°C 78% 4.5 mph SSE7.2 kmh SSE 6.9 mph11.1 kmh 30.58 in1035.6 mb 0.00 in0.0 mm 0.00 in0.0 mm 0.00 in0.0 mm
09:29 AM 11.1°F-11.6°C 5.5°F-14.7°C 78% 3.8 mph SSE6.1 kmh SSE 6.0 mph9.7 kmh 30.59 in1035.9 mb 0.00 in0.0 mm 0.00 in0.0 mm 0.00 in0.0 mm
09:34 AM 11.3°F-11.5°C 6.1°F-14.4°C 79% 4.7 mph SSE7.6 kmh SSE 6.5 mph10.5 kmh 30.59 in1035.9 mb 0.00 in0.0 mm 0.00 in0.0 mm 0.00 in0.0 mm
09:39 AM 11.5°F-11.4°C 5.9°F-14.5°C 78% 3.6 mph SSE5.8 kmh SSE 5.6 mph9.0 kmh 30.58 in1035.6 mb 0.00 in0.0 mm 0.00 in0.0 mm 0.00 in0.0 mm
09:44 AM 11.7°F-11.3°C 6.1°F-14.4°C 78% 4.3 mph SSE6.9 kmh SSE 6.3 mph10.1 kmh 30.58 in1035.6 mb 0.00 in0.0 mm 0.00 in0.0 mm 0.00 in0.0 mm
09:49 AM 11.8°F-11.2°C 6.3°F-14.3°C 78% 5.6 mph SSE9.0 kmh SSE 8.9 mph14.3 kmh 30.58 in1035.6 mb 0.00 in0.0 mm 0.00 in0.0 mm 0.00 in0.0 mm
09:54 AM 12.0°F-11.1°C 6.4°F-14.2°C 78% 4.3 mph S6.9 kmh S 5.1 mph8.2 kmh 30.57 in1035.2 mb 0.00 in0.0 mm 0.00 in0.0 mm 0.00 in0.0 mm
09:59 AM 12.0°F-11.1°C 6.4°F-14.2°C 78% 6.3 mph SSE10.1 kmh SSE 9.4 mph15.1 kmh 30.57 in1035.2 mb 0.00 in0.0 mm 0.00 in0.0 mm 0.00 in0.0 mm
10:04 AM 12.2°F-11.0°C 6.6°F-14.1°C 78% 4.9 mph SE7.9 kmh SE 6.9 mph11.1 kmh 30.56 in1034.9 mb 0.00 in0.0 mm 0.00 in0.0 mm 0.00 in0.0 mm
10:09 AM 12.4°F-10.9°C 6.8°F-14.0°C 78% 4.3 mph SSE6.9 kmh SSE 6.0 mph9.7 kmh 30.56 in1034.9 mb 0.00 in0.0 mm 0.00 in0.0 mm 0.00 in0.0 mm
10:14 AM 12.6°F-10.8°C 6.4°F-14.2°C 76% 6.5 mph S10.5 kmh S 11.2 mph18.0 kmh 30.57 in1035.2 mb 0.00 in0.0 mm 0.00 in0.0 mm 0.00 in0.0 mm
10:19 AM 12.6°F-10.8°C 6.4°F-14.2°C 76% 4.9 mph SSE7.9 kmh SSE 8.5 mph13.7 kmh 30.57 in1035.2 mb 0.00 in0.0 mm 0.00 in0.0 mm 0.00 in0.0 mm
10:24 AM 12.7°F-10.7°C 6.3°F-14.3°C 75% 6.0 mph SSE9.7 kmh SSE 7.6 mph12.2 kmh 30.57 in1035.2 mb 0.00 in0.0 mm 0.00 in0.0 mm 0.00 in0.0 mm
10:29 AM 12.9°F-10.6°C 6.4°F-14.2°C 75% 3.8 mph SE6.1 kmh SE 7.4 mph11.9 kmh 30.56 in1034.9 mb 0.00 in0.0 mm 0.00 in0.0 mm 0.00 in0.0 mm
10:34 AM 13.1°F-10.5°C 6.6°F-14.1°C 75% 4.5 mph SSE7.2 kmh SSE 7.8 mph12.6 kmh 30.56 in1034.9 mb 0.00 in0.0 mm 0.00 in0.0 mm 0.00 in0.0 mm
10:39 AM 13.5°F-10.3°C 7.0°F-13.9°C 75% 4.7 mph SSE7.6 kmh SSE 8.1 mph13.0 kmh 30.56 in1034.9 mb 0.00 in0.0 mm 0.00 in0.0 mm 0.00 in0.0 mm
10:44 AM 13.6°F-10.2°C 7.2°F-13.8°C 75% 5.6 mph S9.0 kmh S 7.8 mph12.6 kmh 30.56 in1034.9 mb 0.00 in0.0 mm 0.00 in0.0 mm 0.00 in0.0 mm
10:49 AM 14.0°F-10.0°C 7.5°F-13.6°C 75% 4.5 mph SE7.2 kmh SE 7.2 mph11.6 kmh 30.56 in1034.9 mb 0.00 in0.0 mm 0.00 in0.0 mm 0.00 in0.0 mm
10:54 AM 14.2°F-9.9°C 7.3°F-13.7°C 74% 4.9 mph SSE7.9 kmh SSE 7.6 mph12.2 kmh 30.55 in1034.5 mb 0.00 in0.0 mm 0.00 in0.0 mm 0.00 in0.0 mm
10:59 AM 14.5°F-9.7°C 7.7°F-13.5°C 74% 5.6 mph SE9.0 kmh SE 9.6 mph15.4 kmh 30.55 in1034.5 mb 0.00 in0.0 mm 0.00 in0.0 mm 0.00 in0.0 mm
11:04 AM 14.7°F-9.6°C 7.9°F-13.4°C 74% 4.3 mph SSE6.9 kmh SSE 5.8 mph9.3 kmh 30.55 in1034.5 mb 0.00 in0.0 mm 0.00 in0.0 mm 0.00 in0.0 mm
11:09 AM 14.9°F-9.5°C 7.9°F-13.4°C 73% 4.9 mph SE7.9 kmh SE 6.9 mph11.1 kmh 30.54 in1034.2 mb 0.00 in0.0 mm 0.00 in0.0 mm 0.00 in0.0 mm
11:14 AM 15.1°F-9.4°C 8.1°F-13.3°C 73% 5.1 mph SE8.2 kmh SE 8.3 mph13.4 kmh 30.53 in1033.9 mb 0.00 in0.0 mm 0.00 in0.0 mm 0.00 in0.0 mm
11:19 AM 15.3°F-9.3°C 7.5°F-13.6°C 71% 4.9 mph SSE7.9 kmh SSE 7.4 mph11.9 kmh 30.53 in1033.9 mb 0.00 in0.0 mm 0.00 in0.0 mm 0.00 in0.0 mm
11:24 AM 15.4°F-9.2°C 7.7°F-13.5°C 71% 5.8 mph SSE9.3 kmh SSE 8.1 mph13.0 kmh 30.53 in1033.9 mb 0.00 in0.0 mm 0.00 in0.0 mm 0.00 in0.0 mm
11:29 AM 15.6°F-9.1°C 7.9°F-13.4°C 71% 5.4 mph SSE8.7 kmh SSE 9.4 mph15.1 kmh 30.53 in1033.9 mb 0.00 in0.0 mm 0.00 in0.0 mm 0.00 in0.0 mm
11:34 AM 16.0°F-8.9°C 7.9°F-13.4°C 70% 5.4 mph SSE8.7 kmh SSE 8.7 mph14.0 kmh 30.53 in1033.9 mb 0.00 in0.0 mm 0.00 in0.0 mm 0.00 in0.0 mm
11:39 AM 16.2°F-8.8°C 7.7°F-13.5°C 69% 4.9 mph SE7.9 kmh SE 8.3 mph13.4 kmh 30.53 in1033.9 mb 0.00 in0.0 mm 0.00 in0.0 mm 0.00 in0.0 mm
11:44 AM 16.3°F-8.7°C 7.9°F-13.4°C 69% 7.4 mph SSE11.9 kmh SSE 11.2 mph18.0 kmh 30.53 in1033.9 mb 0.00 in0.0 mm 0.00 in0.0 mm 0.00 in0.0 mm
11:49 AM 16.5°F-8.6°C 8.1°F-13.3°C 69% 6.7 mph SSE10.8 kmh SSE 11.6 mph18.7 kmh 30.52 in1033.5 mb 0.00 in0.0 mm 0.00 in0.0 mm 0.00 in0.0 mm
11:54 AM 16.7°F-8.5°C 7.9°F-13.4°C 68% 6.3 mph S10.1 kmh S 9.4 mph15.1 kmh 30.52 in1033.5 mb 0.00 in0.0 mm 0.00 in0.0 mm 0.00 in0.0 mm
11:59 AM 16.9°F-8.4°C 8.1°F-13.3°C 68% 6.3 mph SSE10.1 kmh SSE 9.6 mph15.4 kmh 30.52 in1033.5 mb 0.00 in0.0 mm 0.00 in0.0 mm 0.00 in0.0 mm
12:04 PM 16.9°F-8.4°C 8.1°F-13.3°C 68% 5.4 mph SE8.7 kmh SE 8.5 mph13.7 kmh 30.51 in1033.2 mb 0.00 in0.0 mm 0.00 in0.0 mm 0.00 in0.0 mm
12:09 PM 17.1°F-8.3°C 8.2°F-13.2°C 68% 4.9 mph SSE7.9 kmh SSE 6.9 mph11.1 kmh 30.51 in1033.2 mb 0.00 in0.0 mm 0.00 in0.0 mm 0.00 in0.0 mm
12:14 PM 17.2°F-8.2°C 8.2°F-13.2°C 67% 6.3 mph SE10.1 kmh SE 8.9 mph14.3 kmh 30.51 in1033.2 mb 0.00 in0.0 mm 0.00 in0.0 mm 0.00 in0.0 mm
12:19 PM 17.4°F-8.1°C 8.4°F-13.1°C 67% 4.3 mph SE6.9 kmh SE 5.4 mph8.7 kmh 30.50 in1032.8 mb 0.00 in0.0 mm 0.00 in0.0 mm 0.00 in0.0 mm
12:29 PM 18.0°F-7.8°C 9.1°F-12.7°C 68% 4.7 mph SSE7.6 kmh SSE 6.9 mph11.1 kmh 30.50 in1032.8 mb 0.00 in0.0 mm 0.00 in0.0 mm 0.00 in0.0 mm
12:34 PM 18.3°F-7.6°C 9.5°F-12.5°C 68% 4.0 mph SE6.4 kmh SE 6.5 mph10.5 kmh 30.50 in1032.8 mb 0.00 in0.0 mm 0.00 in0.0 mm 0.00 in0.0 mm
12:39 PM 18.9°F-7.3°C 10.4°F-12.0°C 69% 5.1 mph SSE8.2 kmh SSE 9.8 mph15.8 kmh 30.49 in1032.5 mb 0.00 in0.0 mm 0.00 in0.0 mm 0.00 in0.0 mm
12:44 PM 19.2°F-7.1°C 10.0°F-12.2°C 67% 4.9 mph SSE7.9 kmh SSE 6.3 mph10.1 kmh 30.49 in1032.5 mb 0.00 in0.0 mm 0.00 in0.0 mm 0.00 in0.0 mm
12:49 PM 19.4°F-7.0°C 9.9°F-12.3°C 66% 5.1 mph SSE8.2 kmh SSE 7.4 mph11.9 kmh 30.49 in1032.5 mb 0.00 in0.0 mm 0.00 in0.0 mm 0.00 in0.0 mm
12:54 PM 19.8°F-6.8°C 10.2°F-12.1°C 66% 6.5 mph SSE10.5 kmh SSE 10.5 mph16.9 kmh 30.48 in1032.2 mb 0.00 in0.0 mm 0.00 in0.0 mm 0.00 in0.0 mm
12:59 PM 19.9°F-6.7°C 10.4°F-12.0°C 66% 5.8 mph SSE9.3 kmh SSE 9.4 mph15.1 kmh 30.48 in1032.2 mb 0.00 in0.0 mm 0.00 in0.0 mm 0.00 in0.0 mm
01:04 PM 20.1°F-6.6°C 10.2°F-12.1°C 65% 3.8 mph S6.1 kmh S 7.4 mph11.9 kmh 30.48 in1032.2 mb 0.00 in0.0 mm 0.00 in0.0 mm 0.00 in0.0 mm
01:09 PM 20.5°F-6.4°C 11.3°F-11.5°C 67% 4.5 mph SSE7.2 kmh SSE 6.7 mph10.8 kmh 30.47 in1031.8 mb 0.00 in0.0 mm 0.00 in0.0 mm 0.00 in0.0 mm
01:14 PM 20.7°F-6.3°C 10.8°F-11.8°C 65% 6.0 mph SSE9.7 kmh SSE 8.3 mph13.4 kmh 30.46 in1031.5 mb 0.00 in0.0 mm 0.00 in0.0 mm 0.00 in0.0 mm
01:19 PM 20.8°F-6.2°C 10.9°F-11.7°C 65% 5.1 mph SE8.2 kmh SE 7.6 mph12.2 kmh 30.46 in1031.5 mb 0.00 in0.0 mm 0.00 in0.0 mm 0.00 in0.0 mm
01:24 PM 21.2°F-6.0°C 11.7°F-11.3°C 66% 4.3 mph S6.9 kmh S 5.4 mph8.7 kmh 30.46 in1031.5 mb 0.00 in0.0 mm 0.00 in0.0 mm 0.00 in0.0 mm
01:29 PM 21.6°F-5.8°C 11.3°F-11.5°C 64% 4.9 mph SSE7.9 kmh SSE 7.6 mph12.2 kmh 30.46 in1031.5 mb 0.00 in0.0 mm 0.00 in0.0 mm 0.00 in0.0 mm
01:34 PM 21.7°F-5.7°C 11.5°F-11.4°C 64% 6.3 mph SSE10.1 kmh SSE 11.2 mph18.0 kmh 30.46 in1031.5 mb 0.00 in0.0 mm 0.00 in0.0 mm 0.00 in0.0 mm
01:39 PM 21.9°F-5.6°C 11.7°F-11.3°C 64% 5.8 mph SSE9.3 kmh SSE 7.8 mph12.6 kmh 30.45 in1031.2 mb 0.00 in0.0 mm 0.00 in0.0 mm 0.00 in0.0 mm
01:44 PM 22.3°F-5.4°C 11.7°F-11.3°C 63% 6.5 mph SE10.5 kmh SE 11.2 mph18.0 kmh 30.45 in1031.2 mb 0.00 in0.0 mm 0.00 in0.0 mm 0.00 in0.0 mm
01:49 PM 22.6°F-5.2°C 11.1°F-11.6°C 61% 7.2 mph SSE11.6 kmh SSE 10.5 mph16.9 kmh 30.44 in1030.8 mb 0.00 in0.0 mm 0.00 in0.0 mm 0.00 in0.0 mm
01:54 PM 23.0°F-5.0°C 12.2°F-11.0°C 63% 5.4 mph S8.7 kmh S 9.2 mph14.8 kmh 30.43 in1030.5 mb 0.00 in0.0 mm 0.00 in0.0 mm 0.00 in0.0 mm
01:59 PM 23.4°F-4.8°C 12.9°F-10.6°C 64% 4.5 mph SSE7.2 kmh SSE 7.2 mph11.6 kmh 30.43 in1030.5 mb 0.00 in0.0 mm 0.00 in0.0 mm 0.00 in0.0 mm
02:04 PM 23.7°F-4.6°C 13.3°F-10.4°C 64% 6.9 mph SSE11.1 kmh SSE 10.1 mph16.3 kmh 30.43 in1030.5 mb 0.00 in0.0 mm 0.00 in0.0 mm 0.00 in0.0 mm
02:09 PM 24.1°F-4.4°C 14.0°F-10.0°C 65% 6.5 mph SSE10.5 kmh SSE 10.5 mph16.9 kmh 30.43 in1030.5 mb 0.00 in0.0 mm 0.00 in0.0 mm 0.00 in0.0 mm
02:14 PM 24.4°F-4.2°C 14.4°F-9.8°C 65% 6.3 mph S10.1 kmh S 10.5 mph16.9 kmh 30.42 in1030.1 mb 0.00 in0.0 mm 0.00 in0.0 mm 0.00 in0.0 mm
02:19 PM 24.8°F-4.0°C 15.1°F-9.4°C 66% 4.7 mph S7.6 kmh S 7.4 mph11.9 kmh 30.42 in1030.1 mb 0.00 in0.0 mm 0.00 in0.0 mm 0.00 in0.0 mm
02:24 PM 25.2°F-3.8°C 14.7°F-9.6°C 64% 8.1 mph SSE13.0 kmh SSE 12.5 mph20.1 kmh 30.41 in1029.8 mb 0.00 in0.0 mm 0.00 in0.0 mm 0.00 in0.0 mm
02:29 PM 25.3°F-3.7°C 14.9°F-9.5°C 64% 6.0 mph S9.7 kmh S 9.8 mph15.8 kmh 30.41 in1029.8 mb 0.00 in0.0 mm 0.00 in0.0 mm 0.00 in0.0 mm
02:34 PM 25.5°F-3.6°C 14.7°F-9.6°C 63% 4.9 mph SSE7.9 kmh SSE 6.7 mph10.8 kmh 30.41 in1029.8 mb 0.00 in0.0 mm 0.00 in0.0 mm 0.00 in0.0 mm
02:39 PM 25.7°F-3.5°C 14.2°F-9.9°C 61% 7.6 mph S12.2 kmh S 11.9 mph19.2 kmh 30.41 in1029.8 mb 0.00 in0.0 mm 0.00 in0.0 mm 0.00 in0.0 mm
02:44 PM 26.1°F-3.3°C 14.4°F-9.8°C 61% 5.4 mph S8.7 kmh S 6.9 mph11.1 kmh 30.40 in1029.5 mb 0.00 in0.0 mm 0.00 in0.0 mm 0.00 in0.0 mm
02:49 PM 26.2°F-3.2°C 14.2°F-9.9°C 60% 6.0 mph S9.7 kmh S 9.2 mph14.8 kmh 30.41 in1029.8 mb 0.00 in0.0 mm 0.00 in0.0 mm 0.00 in0.0 mm
02:54 PM 26.2°F-3.2°C 13.5°F-10.3°C 58% 6.5 mph SE10.5 kmh SE 9.6 mph15.4 kmh 30.40 in1029.5 mb 0.00 in0.0 mm 0.00 in0.0 mm 0.00 in0.0 mm
02:59 PM 26.2°F-3.2°C 13.8°F-10.1°C 59% 5.8 mph S9.3 kmh S 9.8 mph15.8 kmh 30.40 in1029.5 mb 0.00 in0.0 mm 0.00 in0.0 mm 0.00 in0.0 mm
03:04 PM 26.6°F-3.0°C 15.6°F-9.1°C 63% 6.7 mph SW10.8 kmh SW 9.4 mph15.1 kmh 30.40 in1029.5 mb 0.00 in0.0 mm 0.00 in0.0 mm 0.00 in0.0 mm
03:09 PM 27.0°F-2.8°C 16.0°F-8.9°C 63% 6.5 mph SSE10.5 kmh SSE 7.4 mph11.9 kmh 30.40 in1029.5 mb 0.00 in0.0 mm 0.00 in0.0 mm 0.00 in0.0 mm
03:14 PM 27.0°F-2.8°C 16.3°F-8.7°C 64% 5.6 mph SSE9.0 kmh SSE 7.6 mph12.2 kmh 30.39 in1029.1 mb 0.00 in0.0 mm 0.00 in0.0 mm 0.00 in0.0 mm
03:19 PM 27.0°F-2.8°C 14.9°F-9.5°C 60% 10.7 mph SSE17.2 kmh SSE 15.2 mph24.5 kmh 30.39 in1029.1 mb 0.00 in0.0 mm 0.00 in0.0 mm 0.00 in0.0 mm
03:24 PM 27.0°F-2.8°C 14.5°F-9.7°C 59% 6.5 mph SSE10.5 kmh SSE 8.7 mph14.0 kmh 30.38 in1028.8 mb 0.00 in0.0 mm 0.00 in0.0 mm 0.00 in0.0 mm
03:29 PM 27.1°F-2.7°C 15.1°F-9.4°C 60% 6.9 mph S11.1 kmh S 10.1 mph16.3 kmh 30.38 in1028.8 mb 0.00 in0.0 mm 0.00 in0.0 mm 0.00 in0.0 mm
03:34 PM 27.1°F-2.7°C 14.7°F-9.6°C 59% 4.5 mph S7.2 kmh S 6.7 mph10.8 kmh 30.37 in1028.4 mb 0.00 in0.0 mm 0.00 in0.0 mm 0.00 in0.0 mm
03:39 PM 27.3°F-2.6°C 14.9°F-9.5°C 59% 8.1 mph SSE13.0 kmh SSE 10.3 mph16.6 kmh 30.37 in1028.4 mb 0.00 in0.0 mm 0.00 in0.0 mm 0.00 in0.0 mm
03:44 PM 27.1°F-2.7°C 14.7°F-9.6°C 59% 5.4 mph S8.7 kmh S 8.1 mph13.0 kmh 30.37 in1028.4 mb 0.00 in0.0 mm 0.00 in0.0 mm 0.00 in0.0 mm
03:49 PM 27.1°F-2.7°C 14.7°F-9.6°C 59% 6.3 mph S10.1 kmh S 10.5 mph16.9 kmh 30.36 in1028.1 mb 0.00 in0.0 mm 0.00 in0.0 mm 0.00 in0.0 mm
03:54 PM 27.3°F-2.6°C 14.9°F-9.5°C 59% 4.9 mph SSE7.9 kmh SSE 7.6 mph12.2 kmh 30.35 in1027.8 mb 0.00 in0.0 mm 0.00 in0.0 mm 0.00 in0.0 mm
03:59 PM 27.3°F-2.6°C 14.5°F-9.7°C 58% 6.9 mph SSE11.1 kmh SSE 10.7 mph17.2 kmh 30.35 in1027.8 mb 0.00 in0.0 mm 0.00 in0.0 mm 0.00 in0.0 mm
04:04 PM 27.5°F-2.5°C 15.1°F-9.4°C 59% 4.7 mph SSE7.6 kmh SSE 6.5 mph10.5 kmh 30.35 in1027.8 mb 0.00 in0.0 mm 0.00 in0.0 mm 0.00 in0.0 mm
04:09 PM 27.5°F-2.5°C 14.7°F-9.6°C 58% 5.4 mph S8.7 kmh S 8.7 mph14.0 kmh 30.35 in1027.8 mb 0.00 in0.0 mm 0.00 in0.0 mm 0.00 in0.0 mm
04:14 PM 27.5°F-2.5°C 15.4°F-9.2°C 60% 6.0 mph S9.7 kmh S 9.6 mph15.4 kmh 30.34 in1027.4 mb 0.00 in0.0 mm 0.00 in0.0 mm 0.00 in0.0 mm
04:19 PM 27.5°F-2.5°C 15.4°F-9.2°C 60% 6.9 mph S11.1 kmh S 9.6 mph15.4 kmh 30.34 in1027.4 mb 0.00 in0.0 mm 0.00 in0.0 mm 0.00 in0.0 mm
04:23 PM 27.5°F-2.5°C 15.8°F-9.0°C 61% 4.9 mph SSE7.9 kmh SSE 6.9 mph11.1 kmh 30.33 in1027.1 mb 0.00 in0.0 mm 0.00 in0.0 mm 0.00 in0.0 mm
04:28 PM 27.3°F-2.6°C 15.3°F-9.3°C 60% 6.7 mph SSE10.8 kmh SSE 11.4 mph18.3 kmh 30.33 in1027.1 mb 0.00 in0.0 mm 0.00 in0.0 mm 0.00 in0.0 mm
04:33 PM 27.3°F-2.6°C 15.3°F-9.3°C 60% 6.7 mph SSW10.8 kmh SSW 14.1 mph22.7 kmh 30.32 in1026.8 mb 0.00 in0.0 mm 0.00 in0.0 mm 0.00 in0.0 mm
04:38 PM 27.1°F-2.7°C 14.7°F-9.6°C 59% 6.9 mph S11.1 kmh S 10.5 mph16.9 kmh 30.32 in1026.8 mb 0.00 in0.0 mm 0.00 in0.0 mm 0.00 in0.0 mm
04:43 PM 27.1°F-2.7°C 15.1°F-9.4°C 60% 5.8 mph SSE9.3 kmh SSE 8.3 mph13.4 kmh 30.32 in1026.8 mb 0.00 in0.0 mm 0.00 in0.0 mm 0.00 in0.0 mm
04:48 PM 27.3°F-2.6°C 15.3°F-9.3°C 60% 4.5 mph SSE7.2 kmh SSE 8.5 mph13.7 kmh 30.32 in1026.8 mb 0.00 in0.0 mm 0.00 in0.0 mm 0.00 in0.0 mm
04:53 PM 27.5°F-2.5°C 15.4°F-9.2°C 60% 5.6 mph S9.0 kmh S 8.5 mph13.7 kmh 30.32 in1026.8 mb 0.00 in0.0 mm 0.00 in0.0 mm 0.00 in0.0 mm
04:58 PM 27.3°F-2.6°C 14.9°F-9.5°C 59% 7.2 mph SSE11.6 kmh SSE 10.1 mph16.3 kmh 30.32 in1026.8 mb 0.00 in0.0 mm 0.00 in0.0 mm 0.00 in0.0 mm
05:03 PM 27.3°F-2.6°C 14.9°F-9.5°C 59% 4.3 mph SSE6.9 kmh SSE 6.7 mph10.8 kmh 30.31 in1026.4 mb 0.00 in0.0 mm 0.00 in0.0 mm 0.00 in0.0 mm
05:08 PM 27.3°F-2.6°C 15.3°F-9.3°C 60% 5.6 mph SSE9.0 kmh SSE 8.1 mph13.0 kmh 30.30 in1026.1 mb 0.00 in0.0 mm 0.00 in0.0 mm 0.00 in0.0 mm
05:13 PM 27.3°F-2.6°C 15.3°F-9.3°C 60% 5.8 mph SSE9.3 kmh SSE 9.6 mph15.4 kmh 30.30 in1026.1 mb 0.00 in0.0 mm 0.00 in0.0 mm 0.00 in0.0 mm
05:18 PM 27.3°F-2.6°C 15.6°F-9.1°C 61% 4.7 mph SE7.6 kmh SE 6.9 mph11.1 kmh 30.30 in1026.1 mb 0.00 in0.0 mm 0.00 in0.0 mm 0.00 in0.0 mm
05:23 PM 27.1°F-2.7°C 15.4°F-9.2°C 61% 5.6 mph SSE9.0 kmh SSE 7.6 mph12.2 kmh 30.30 in1026.1 mb 0.00 in0.0 mm 0.00 in0.0 mm 0.00 in0.0 mm
05:28 PM 27.1°F-2.7°C 15.4°F-9.2°C 61% 6.7 mph S10.8 kmh S 13.4 mph21.6 kmh 30.30 in1026.1 mb 0.00 in0.0 mm 0.00 in0.0 mm 0.00 in0.0 mm
05:33 PM 27.1°F-2.7°C 15.4°F-9.2°C 61% 5.8 mph SSE9.3 kmh SSE 8.3 mph13.4 kmh 30.29 in1025.7 mb 0.00 in0.0 mm 0.00 in0.0 mm 0.00 in0.0 mm
05:38 PM 27.0°F-2.8°C 15.3°F-9.3°C 61% 7.6 mph SSE12.2 kmh SSE 10.5 mph16.9 kmh 30.29 in1025.7 mb 0.00 in0.0 mm 0.00 in0.0 mm 0.00 in0.0 mm
05:43 PM 27.0°F-2.8°C 14.9°F-9.5°C 60% 4.5 mph SSE7.2 kmh SSE 6.3 mph10.1 kmh 30.29 in1025.7 mb 0.00 in0.0 mm 0.00 in0.0 mm 0.00 in0.0 mm
05:48 PM 27.0°F-2.8°C 15.3°F-9.3°C 61% 5.8 mph SSE9.3 kmh SSE 7.4 mph11.9 kmh 30.29 in1025.7 mb 0.00 in0.0 mm 0.00 in0.0 mm 0.00 in0.0 mm
05:53 PM 27.0°F-2.8°C 15.3°F-9.3°C 61% 4.0 mph SE6.4 kmh SE 7.2 mph11.6 kmh 30.28 in1025.4 mb 0.00 in0.0 mm 0.00 in0.0 mm 0.00 in0.0 mm
05:58 PM 27.0°F-2.8°C 16.0°F-8.9°C 63% 5.8 mph S9.3 kmh S 8.1 mph13.0 kmh 30.29 in1025.7 mb 0.00 in0.0 mm 0.00 in0.0 mm 0.00 in0.0 mm
06:03 PM 27.0°F-2.8°C 16.0°F-8.9°C 63% 4.3 mph SE6.9 kmh SE 6.5 mph10.5 kmh 30.28 in1025.4 mb 0.00 in0.0 mm 0.00 in0.0 mm 0.00 in0.0 mm
06:08 PM 27.0°F-2.8°C 16.0°F-8.9°C 63% 4.9 mph SSE7.9 kmh SSE 6.7 mph10.8 kmh 30.28 in1025.4 mb 0.00 in0.0 mm 0.00 in0.0 mm 0.00 in0.0 mm
06:13 PM 27.0°F-2.8°C 16.0°F-8.9°C 63% 5.8 mph S9.3 kmh S 9.8 mph15.8 kmh 30.27 in1025.1 mb 0.00 in0.0 mm 0.00 in0.0 mm 0.00 in0.0 mm
06:18 PM 27.0°F-2.8°C 16.0°F-8.9°C 63% 5.1 mph S8.2 kmh S 8.1 mph13.0 kmh 30.28 in1025.4 mb 0.00 in0.0 mm 0.00 in0.0 mm 0.00 in0.0 mm
06:23 PM 27.0°F-2.8°C 15.3°F-9.3°C 61% 6.0 mph S9.7 kmh S 10.1 mph16.3 kmh 30.27 in1025.1 mb 0.00 in0.0 mm 0.00 in0.0 mm 0.00 in0.0 mm
06:28 PM 26.8°F-2.9°C 15.1°F-9.4°C 61% 6.0 mph SSE9.7 kmh SSE 9.2 mph14.8 kmh 30.27 in1025.1 mb 0.00 in0.0 mm 0.00 in0.0 mm 0.00 in0.0 mm
06:33 PM 27.0°F-2.8°C 15.3°F-9.3°C 61% 7.8 mph SSE12.6 kmh SSE 12.1 mph19.5 kmh 30.27 in1025.1 mb 0.00 in0.0 mm 0.00 in0.0 mm 0.00 in0.0 mm
06:38 PM 27.0°F-2.8°C 15.3°F-9.3°C 61% 6.5 mph S10.5 kmh S 8.5 mph13.7 kmh 30.26 in1024.7 mb 0.00 in0.0 mm 0.00 in0.0 mm 0.00 in0.0 mm
06:43 PM 27.0°F-2.8°C 15.3°F-9.3°C 61% 7.6 mph SSE12.2 kmh SSE 11.9 mph19.2 kmh 30.26 in1024.7 mb 0.00 in0.0 mm 0.00 in0.0 mm 0.00 in0.0 mm
06:48 PM 26.8°F-2.9°C 15.8°F-9.0°C 63% 6.5 mph S10.5 kmh S 11.0 mph17.7 kmh 30.27 in1025.1 mb 0.00 in0.0 mm 0.00 in0.0 mm 0.00 in0.0 mm
06:53 PM 27.0°F-2.8°C 16.0°F-8.9°C 63% 5.1 mph S8.2 kmh S 6.9 mph11.1 kmh 30.27 in1025.1 mb 0.00 in0.0 mm 0.00 in0.0 mm 0.00 in0.0 mm
06:58 PM 27.0°F-2.8°C 16.0°F-8.9°C 63% 5.1 mph SSE8.2 kmh SSE 7.4 mph11.9 kmh 30.26 in1024.7 mb 0.00 in0.0 mm 0.00 in0.0 mm 0.00 in0.0 mm
07:03 PM 27.0°F-2.8°C 15.3°F-9.3°C 61% 6.7 mph SE10.8 kmh SE 9.6 mph15.4 kmh 30.26 in1024.7 mb 0.00 in0.0 mm 0.00 in0.0 mm 0.00 in0.0 mm
07:08 PM 27.1°F-2.7°C 15.4°F-9.2°C 61% 8.3 mph S13.4 kmh S 17.0 mph27.4 kmh 30.26 in1024.7 mb 0.00 in0.0 mm 0.00 in0.0 mm 0.00 in0.0 mm
07:13 PM 27.1°F-2.7°C 16.5°F-8.6°C 64% 8.1 mph SSE13.0 kmh SSE 12.8 mph20.6 kmh 30.26 in1024.7 mb 0.00 in0.0 mm 0.00 in0.0 mm 0.00 in0.0 mm
07:18 PM 27.3°F-2.6°C 16.3°F-8.7°C 63% 6.7 mph S10.8 kmh S 8.9 mph14.3 kmh 30.25 in1024.4 mb 0.00 in0.0 mm 0.00 in0.0 mm 0.00 in0.0 mm
07:23 PM 27.3°F-2.6°C 15.6°F-9.1°C 61% 6.7 mph S10.8 kmh S 9.6 mph15.4 kmh 30.26 in1024.7 mb 0.00 in0.0 mm 0.00 in0.0 mm 0.00 in0.0 mm
07:28 PM 27.5°F-2.5°C 15.8°F-9.0°C 61% 7.2 mph SSE11.6 kmh SSE 9.2 mph14.8 kmh 30.26 in1024.7 mb 0.00 in0.0 mm 0.00 in0.0 mm 0.00 in0.0 mm
07:33 PM 27.5°F-2.5°C 15.8°F-9.0°C 61% 7.4 mph SSE11.9 kmh SSE 9.8 mph15.8 kmh 30.26 in1024.7 mb 0.00 in0.0 mm 0.00 in0.0 mm 0.00 in0.0 mm
07:38 PM 27.7°F-2.4°C 16.0°F-8.9°C 61% 8.1 mph S13.0 kmh S 11.6 mph18.7 kmh 30.26 in1024.7 mb 0.00 in0.0 mm 0.00 in0.0 mm 0.00 in0.0 mm
07:43 PM 27.7°F-2.4°C 16.0°F-8.9°C 61% 5.6 mph S9.0 kmh S 13.4 mph21.6 kmh 30.26 in1024.7 mb 0.00 in0.0 mm 0.00 in0.0 mm 0.00 in0.0 mm
07:48 PM 27.9°F-2.3°C 16.2°F-8.8°C 61% 5.6 mph S9.0 kmh S 9.4 mph15.1 kmh 30.26 in1024.7 mb 0.00 in0.0 mm 0.00 in0.0 mm 0.00 in0.0 mm
07:53 PM 28.0°F-2.2°C 16.3°F-8.7°C 61% 6.5 mph SSE10.5 kmh SSE 12.5 mph20.1 kmh 30.25 in1024.4 mb 0.00 in0.0 mm 0.00 in0.0 mm 0.00 in0.0 mm
07:58 PM 28.0°F-2.2°C 16.3°F-8.7°C 61% 6.5 mph SSE10.5 kmh SSE 11.4 mph18.3 kmh 30.24 in1024.0 mb 0.00 in0.0 mm 0.00 in0.0 mm 0.00 in0.0 mm
08:03 PM 28.0°F-2.2°C 16.3°F-8.7°C 61% 6.3 mph SSE10.1 kmh SSE 10.5 mph16.9 kmh 30.24 in1024.0 mb 0.00 in0.0 mm 0.00 in0.0 mm 0.00 in0.0 mm
08:08 PM 28.0°F-2.2°C 16.3°F-8.7°C 61% 6.3 mph S10.1 kmh S 8.7 mph14.0 kmh 30.24 in1024.0 mb 0.00 in0.0 mm 0.00 in0.0 mm 0.00 in0.0 mm
08:13 PM 28.0°F-2.2°C 17.1°F-8.3°C 63% 4.9 mph S7.9 kmh S 7.6 mph12.2 kmh 30.24 in1024.0 mb 0.00 in0.0 mm 0.00 in0.0 mm 0.00 in0.0 mm
08:18 PM 28.0°F-2.2°C 16.3°F-8.7°C 61% 6.7 mph SSE10.8 kmh SSE 10.7 mph17.2 kmh 30.24 in1024.0 mb 0.00 in0.0 mm 0.00 in0.0 mm 0.00 in0.0 mm
08:23 PM 28.2°F-2.1°C 16.5°F-8.6°C 61% 6.9 mph S11.1 kmh S 10.3 mph16.6 kmh 30.24 in1024.0 mb 0.00 in0.0 mm 0.00 in0.0 mm 0.00 in0.0 mm
08:28 PM 28.2°F-2.1°C 17.2°F-8.2°C 63% 5.8 mph SSE9.3 kmh SSE 8.9 mph14.3 kmh 30.24 in1024.0 mb 0.00 in0.0 mm 0.00 in0.0 mm 0.00 in0.0 mm
08:33 PM 28.4°F-2.0°C 16.7°F-8.5°C 61% 6.5 mph S10.5 kmh S 10.5 mph16.9 kmh 30.23 in1023.7 mb 0.00 in0.0 mm 0.00 in0.0 mm 0.00 in0.0 mm
08:38 PM 28.4°F-2.0°C 16.7°F-8.5°C 61% 7.8 mph S12.6 kmh S 12.1 mph19.5 kmh 30.23 in1023.7 mb 0.00 in0.0 mm 0.00 in0.0 mm 0.00 in0.0 mm
08:43 PM 28.6°F-1.9°C 16.9°F-8.4°C 61% 8.3 mph S13.4 kmh S 16.6 mph26.7 kmh 30.24 in1024.0 mb 0.00 in0.0 mm 0.00 in0.0 mm 0.00 in0.0 mm
08:48 PM 28.6°F-1.9°C 16.9°F-8.4°C 61% 5.4 mph S8.7 kmh S 8.1 mph13.0 kmh 30.23 in1023.7 mb 0.00 in0.0 mm 0.00 in0.0 mm 0.00 in0.0 mm
08:53 PM 28.6°F-1.9°C 16.9°F-8.4°C 61% 6.3 mph S10.1 kmh S 8.7 mph14.0 kmh 30.24 in1024.0 mb 0.00 in0.0 mm 0.00 in0.0 mm 0.00 in0.0 mm
08:58 PM 28.8°F-1.8°C 17.1°F-8.3°C 61% 6.0 mph SSE9.7 kmh SSE 9.2 mph14.8 kmh 30.24 in1024.0 mb 0.00 in0.0 mm 0.00 in0.0 mm 0.00 in0.0 mm
09:03 PM 28.8°F-1.8°C 17.1°F-8.3°C 61% 5.8 mph SSE9.3 kmh SSE 8.3 mph13.4 kmh 30.24 in1024.0 mb 0.00 in0.0 mm 0.00 in0.0 mm 0.00 in0.0 mm
09:08 PM 28.8°F-1.8°C 17.1°F-8.3°C 61% 4.5 mph S7.2 kmh S 8.1 mph13.0 kmh 30.23 in1023.7 mb 0.00 in0.0 mm 0.00 in0.0 mm 0.00 in0.0 mm
09:13 PM 28.9°F-1.7°C 18.0°F-7.8°C 63% 5.8 mph S9.3 kmh S 9.4 mph15.1 kmh 30.23 in1023.7 mb 0.00 in0.0 mm 0.00 in0.0 mm 0.00 in0.0 mm
09:18 PM 28.9°F-1.7°C 18.0°F-7.8°C 63% 4.9 mph S7.9 kmh S 8.5 mph13.7 kmh 30.23 in1023.7 mb 0.00 in0.0 mm 0.00 in0.0 mm 0.00 in0.0 mm
09:23 PM 29.3°F-1.5°C 17.6°F-8.0°C 61% 7.2 mph SSE11.6 kmh SSE 10.3 mph16.6 kmh 30.22 in1023.4 mb 0.00 in0.0 mm 0.00 in0.0 mm 0.00 in0.0 mm
09:28 PM 29.5°F-1.4°C 17.6°F-8.0°C 61% 5.1 mph S8.2 kmh S 8.3 mph13.4 kmh 30.22 in1023.4 mb 0.00 in0.0 mm 0.00 in0.0 mm 0.00 in0.0 mm
09:33 PM 29.7°F-1.3°C 17.8°F-7.9°C 61% 4.5 mph S7.2 kmh S 7.8 mph12.6 kmh 30.22 in1023.4 mb 0.00 in0.0 mm 0.00 in0.0 mm 0.00 in0.0 mm
09:38 PM 30.2°F-1.0°C 18.3°F-7.6°C 61% 6.5 mph S10.5 kmh S 9.2 mph14.8 kmh 30.22 in1023.4 mb 0.00 in0.0 mm 0.00 in0.0 mm 0.00 in0.0 mm
09:43 PM 30.6°F-0.8°C 18.7°F-7.4°C 61% 5.4 mph S8.7 kmh S 12.5 mph20.1 kmh 30.21 in1023.0 mb 0.00 in0.0 mm 0.00 in0.0 mm 0.00 in0.0 mm
09:48 PM 30.9°F-0.6°C 18.7°F-7.4°C 60% 5.1 mph SE8.2 kmh SE 9.8 mph15.8 kmh 30.22 in1023.4 mb 0.00 in0.0 mm 0.00 in0.0 mm 0.00 in0.0 mm
09:53 PM 30.9°F-0.6°C 18.7°F-7.4°C 60% 6.9 mph S11.1 kmh S 10.5 mph16.9 kmh 30.21 in1023.0 mb 0.00 in0.0 mm 0.00 in0.0 mm 0.00 in0.0 mm
09:58 PM 31.3°F-0.4°C 18.7°F-7.4°C 59% 6.0 mph SSE9.7 kmh SSE 12.5 mph20.1 kmh 30.21 in1023.0 mb 0.00 in0.0 mm 0.00 in0.0 mm 0.00 in0.0 mm
10:03 PM 31.3°F-0.4°C 19.0°F-7.2°C 60% 8.3 mph S13.4 kmh S 15.0 mph24.1 kmh 30.20 in1022.7 mb 0.00 in0.0 mm 0.00 in0.0 mm 0.00 in0.0 mm
10:08 PM 31.5°F-0.3°C 19.2°F-7.1°C 60% 8.9 mph S14.3 kmh S 20.6 mph33.2 kmh 30.20 in1022.7 mb 0.00 in0.0 mm 0.00 in0.0 mm 0.00 in0.0 mm
10:13 PM 31.6°F-0.2°C 19.4°F-7.0°C 60% 8.9 mph SSW14.3 kmh SSW 14.5 mph23.3 kmh 30.20 in1022.7 mb 0.00 in0.0 mm 0.00 in0.0 mm 0.00 in0.0 mm
10:18 PM 32.0°F0.0°C 19.2°F-7.1°C 59% 8.9 mph SSW14.3 kmh SSW 11.4 mph18.3 kmh 30.19 in1022.4 mb 0.00 in0.0 mm 0.00 in0.0 mm 0.00 in0.0 mm
10:23 PM 32.2°F0.1°C 19.8°F-6.8°C 60% 8.9 mph SSW14.3 kmh SSW 14.8 mph23.8 kmh 30.19 in1022.4 mb 0.00 in0.0 mm 0.00 in0.0 mm 0.00 in0.0 mm
10:28 PM 32.2°F0.1°C 19.4°F-7.0°C 59% 8.9 mph S14.3 kmh S 12.5 mph20.1 kmh 30.19 in1022.4 mb 0.00 in0.0 mm 0.00 in0.0 mm 0.00 in0.0 mm
10:33 PM 32.2°F0.1°C 19.8°F-6.8°C 60% 8.5 mph SSW13.7 kmh SSW 18.6 mph29.9 kmh 30.18 in1022.0 mb 0.00 in0.0 mm 0.00 in0.0 mm 0.00 in0.0 mm
10:38 PM 32.5°F0.3°C 19.8°F-6.8°C 59% 6.5 mph SSW10.5 kmh SSW 9.2 mph14.8 kmh 30.18 in1022.0 mb 0.00 in0.0 mm 0.00 in0.0 mm 0.00 in0.0 mm
10:43 PM 32.7°F0.4°C 19.9°F-6.7°C 59% 11.4 mph SSW18.3 kmh SSW 19.2 mph30.9 kmh 30.18 in1022.0 mb 0.00 in0.0 mm 0.00 in0.0 mm 0.00 in0.0 mm
10:48 PM 32.9°F0.5°C 20.5°F-6.4°C 60% 8.3 mph S13.4 kmh S 17.9 mph28.8 kmh 30.17 in1021.7 mb 0.00 in0.0 mm 0.00 in0.0 mm 0.00 in0.0 mm
10:53 PM 33.1°F0.6°C 20.3°F-6.5°C 59% 10.1 mph SSW16.3 kmh SSW 16.8 mph27.0 kmh 30.17 in1021.7 mb 0.00 in0.0 mm 0.00 in0.0 mm 0.00 in0.0 mm
10:58 PM 33.3°F0.7°C 20.5°F-6.4°C 59% 6.7 mph S10.8 kmh S 14.8 mph23.8 kmh 30.17 in1021.7 mb 0.00 in0.0 mm 0.00 in0.0 mm 0.00 in0.0 mm
11:03 PM 33.4°F0.8°C 20.7°F-6.3°C 59% 10.7 mph S17.2 kmh S 15.2 mph24.5 kmh 30.17 in1021.7 mb 0.00 in0.0 mm 0.00 in0.0 mm 0.00 in0.0 mm
11:08 PM 33.4°F0.8°C 20.7°F-6.3°C 59% 9.4 mph S15.1 kmh S 14.5 mph23.3 kmh 30.17 in1021.7 mb 0.00 in0.0 mm 0.00 in0.0 mm 0.00 in0.0 mm
11:13 PM 33.4°F0.8°C 21.0°F-6.1°C 60% 5.6 mph S9.0 kmh S 10.5 mph16.9 kmh 30.17 in1021.7 mb 0.00 in0.0 mm 0.00 in0.0 mm 0.00 in0.0 mm
11:18 PM 33.4°F0.8°C 21.4°F-5.9°C 61% 7.8 mph SW12.6 kmh SW 13.4 mph21.6 kmh 30.16 in1021.3 mb 0.00 in0.0 mm 0.00 in0.0 mm 0.00 in0.0 mm
11:23 PM 33.4°F0.8°C 21.0°F-6.1°C 60% 10.1 mph S16.3 kmh S 19.7 mph31.7 kmh 30.16 in1021.3 mb 0.00 in0.0 mm 0.00 in0.0 mm 0.00 in0.0 mm
11:28 PM 33.6°F0.9°C 21.2°F-6.0°C 60% 6.9 mph SSW11.1 kmh SSW 10.5 mph16.9 kmh 30.16 in1021.3 mb 0.00 in0.0 mm 0.00 in0.0 mm 0.00 in0.0 mm
11:33 PM 34.0°F1.1°C 21.6°F-5.8°C 60% 9.2 mph S14.8 kmh S 13.2 mph21.2 kmh 30.14 in1020.7 mb 0.00 in0.0 mm 0.00 in0.0 mm 0.00 in0.0 mm
11:38 PM 34.0°F1.1°C 21.6°F-5.8°C 60% 8.9 mph S14.3 kmh S 17.2 mph27.7 kmh 30.14 in1020.7 mb 0.00 in0.0 mm 0.00 in0.0 mm 0.00 in0.0 mm
11:43 PM 34.0°F1.1°C 21.6°F-5.8°C 60% 6.3 mph S10.1 kmh S 10.3 mph16.6 kmh 30.14 in1020.7 mb 0.00 in0.0 mm 0.00 in0.0 mm 0.00 in0.0 mm
11:48 PM 34.2°F1.2°C 22.1°F-5.5°C 61% 9.4 mph SSW15.1 kmh SSW 19.5 mph31.4 kmh 30.13 in1020.3 mb 0.00 in0.0 mm 0.00 in0.0 mm 0.00 in0.0 mm
11:53 PM 34.2°F1.2°C 22.1°F-5.5°C 61% 7.6 mph SW12.2 kmh SW 13.4 mph21.6 kmh 30.14 in1020.7 mb 0.00 in0.0 mm 0.00 in0.0 mm 0.00 in0.0 mm
11:58 PM 34.2°F1.2°C 22.1°F-5.5°C 61% 7.6 mph S12.2 kmh S 13.4 mph21.6 kmh 30.14 in1020.7 mb 0.00 in0.0 mm 0.00 in0.0 mm 0.00 in0.0 mm